Time;durP1;ratioP1;P1;durP2;ratioP2;P2;SDS_P1;SDS_P2;PMS_P1;PMS_P2;Temp;Humidity;BMP_temperature;BMP_pressure;BME280_temperature;BME280_humidity;BME280_pressure;Samples;Min_cycle;Max_cycle;Signal;HPM_P1;HPM_P2
2021/08/04 00:01:02;;;;;;;1.55;1.45;;;;;;;16.35;84.18;96128.69;5261994;56;20134;-75
2021/08/04 00:06:05;;;;;;;2.78;1.77;;;;;;;16.30;84.52;96132.25;5252708;56;20239;-75
2021/08/04 00:11:08;;;;;;;1.58;1.33;;;;;;;16.29;83.92;96136.28;5261874;56;20120;-76
2021/08/04 00:16:11;;;;;;;1.48;1.38;;;;;;;16.29;83.64;96130.72;5261715;56;20133;-74
2021/08/04 00:21:13;;;;;;;1.67;1.55;;;;;;;16.21;85.58;96140.84;5261508;56;20130;-74
2021/08/04 00:26:15;;;;;;;1.90;1.80;;;;;;;16.25;84.05;96132.22;5261330;56;20129;-74
2021/08/04 00:31:18;;;;;;;2.88;1.63;;;;;;;16.09;85.83;96128.13;5261594;56;20246;-75
2021/08/04 00:36:21;;;;;;;2.00;1.73;;;;;;;16.34;84.62;96132.75;5261806;56;20134;-75
2021/08/04 00:41:24;;;;;;;1.60;1.50;;;;;;;16.12;85.96;96127.13;5264984;56;20134;-75
2021/08/04 00:46:29;;;;;;;1.42;1.33;;;;;;;16.32;84.48;96137.31;5265069;56;20143;-74
2021/08/04 00:51:31;;;;;;;1.48;1.38;;;;;;;16.24;83.88;96133.47;5264693;56;20726;-76
2021/08/04 00:56:34;;;;;;;2.63;1.40;;;;;;;16.25;83.90;96123.84;5264474;56;20117;-75
2021/08/04 01:01:49;;;;;;;2.40;1.50;;;;;;;16.24;85.31;96120.31;5264495;56;20133;-76
2021/08/04 01:07:19;;;;;;;1.50;1.40;;;;;;;16.14;85.40;96135.00;5264424;56;20129;-75
2021/08/04 01:12:30;;;;;;;1.90;1.73;;;;;;;16.15;85.87;96137.25;5264480;56;20656;-75
2021/08/04 01:17:34;;;;;;;1.67;1.58;;;;;;;15.95;86.01;96145.06;5264594;56;20120;-75
2021/08/04 01:22:53;;;;;;;1.92;1.52;;;;;;;16.05;86.59;96143.59;5264320;56;20142;-75
2021/08/04 01:28:20;;;;;;;1.67;1.58;;;;;;;16.09;87.31;96133.72;5266449;56;20138;-75
2021/08/04 01:33:23;;;;;;;1.55;1.42;;;;;;;16.03;86.88;96138.53;5275157;56;20120;-75
2021/08/04 01:38:28;;;;;;;1.58;1.48;;;;;;;16.07;86.13;96135.47;5258651;56;20121;-75
2021/08/04 01:43:32;;;;;;;8.32;1.42;;;;;;;15.97;86.41;96134.94;5264443;56;20103;-76
2021/08/04 01:48:38;;;;;;;1.92;1.65;;;;;;;15.98;86.76;96132.91;5263913;56;20134;-75
2021/08/04 01:53:44;;;;;;;2.72;1.70;;;;;;;15.92;87.84;96112.66;5263979;56;20221;-74
2021/08/04 01:58:47;;;;;;;1.90;1.70;;;;;;;15.75;88.54;96121.72;5264064;56;20134;-75
2021/08/04 02:03:49;;;;;;;1.70;1.60;;;;;;;15.60;88.72;96118.34;5263741;56;20116;-75
2021/08/04 02:09:02;;;;;;;1.80;1.70;;;;;;;15.84;88.07;96111.59;5254364;56;20133;-75
2021/08/04 02:14:16;;;;;;;1.70;1.60;;;;;;;15.86;87.47;96109.06;5263680;56;20687;-73
2021/08/04 02:19:31;;;;;;;2.72;1.65;;;;;;;15.67;88.39;96098.38;5263999;56;20130;-74
2021/08/04 02:24:41;;;;;;;1.70;1.58;;;;;;;15.58;87.31;96104.16;5274251;56;20125;-75
2021/08/04 02:29:43;;;;;;;;;;;;;;;15.73;86.71;96118.66;5272881;56;20124;-75
2021/08/04 02:34:46;;;;;;;1.50;1.40;;;;;;;15.74;86.94;96109.03;5254572;56;20008;-73
2021/08/04 02:39:48;;;;;;;2.30;1.65;;;;;;;15.71;87.16;96114.84;5263895;56;20124;-76
2021/08/04 02:44:51;;;;;;;1.50;1.40;;;;;;;15.93;87.33;96119.72;5262890;56;20231;-76
2021/08/04 02:49:54;;;;;;;1.67;1.58;;;;;;;15.92;87.24;96107.06;5263487;56;20145;-75
2021/08/04 02:54:59;;;;;;;2.40;1.50;;;;;;;15.64;87.95;96107.75;5254047;56;20164;-74
2021/08/04 03:00:03;;;;;;;1.70;1.60;;;;;;;15.77;88.47;96090.56;5262465;56;20684;-74
2021/08/04 03:05:07;;;;;;;2.45;1.85;;;;;;;15.84;88.52;96087.28;5262757;56;20125;-75
2021/08/04 03:10:09;;;;;;;5.10;1.60;;;;;;;15.83;86.99;96093.38;5262654;56;20652;-75
2021/08/04 03:15:12;;;;;;;1.80;1.70;;;;;;;15.72;87.87;96097.63;5262248;56;20801;-75
2021/08/04 03:20:14;;;;;;;1.80;1.70;;;;;;;15.60;88.60;96106.47;5253961;56;20112;-75
2021/08/04 03:25:21;;;;;;;1.42;1.38;;;;;;;15.64;88.24;96104.19;5261573;56;21093;-75
2021/08/04 03:30:23;;;;;;;2.20;2.00;;;;;;;15.56;87.79;96108.69;5262514;56;20129;-75
2021/08/04 03:35:25;;;;;;;2.70;1.90;;;;;;;15.56;88.28;96106.69;5261884;56;20594;-75
2021/08/04 03:40:28;;;;;;;1.50;1.40;;;;;;;15.62;87.97;96092.78;5261923;56;20665;-75
2021/08/04 03:45:30;;;;;;;1.67;1.58;;;;;;;15.70;87.80;96102.19;5261933;56;20660;-76
2021/08/04 03:50:33;;;;;;;1.75;1.65;;;;;;;15.65;87.47;96105.69;5262467;56;20175;-76
2021/08/04 03:55:35;;;;;;;1.83;1.73;;;;;;;15.76;86.91;96089.78;5261852;56;20139;-75
2021/08/04 04:00:38;;;;;;;3.00;1.75;;;;;;;15.79;86.82;96099.16;5262006;56;20125;-75
2021/08/04 04:05:40;;;;;;;7.40;1.90;;;;;;;15.75;87.15;96096.63;5261617;56;20112;-75
2021/08/04 04:10:43;;;;;;;1.63;1.52;;;;;;;15.83;86.89;96090.56;5261114;56;20129;-76
2021/08/04 04:15:45;;;;;;;1.80;1.70;;;;;;;15.99;86.72;96098.22;5261749;56;20648;-75
2021/08/04 04:20:47;;;;;;;2.45;1.58;;;;;;;15.92;86.79;96091.09;5252695;56;20120;-75
2021/08/04 04:25:50;;;;;;;2.55;1.65;;;;;;;16.15;86.23;96089.88;5261422;56;20698;-75
2021/08/04 04:30:52;;;;;;;4.20;1.52;;;;;;;16.13;86.14;96086.84;5261251;56;20138;-75
2021/08/04 04:35:55;;;;;;;2.05;1.48;;;;;;;16.22;86.12;96092.16;5261281;56;20116;-75
2021/08/04 04:40:57;;;;;;;2.35;1.77;;;;;;;16.32;86.11;96095.47;5261711;56;20134;-74
2021/08/04 04:46:00;;;;;;;1.42;1.30;;;;;;;16.41;86.00;96101.59;5261405;56;20692;-75
2021/08/04 04:51:02;;;;;;;2.80;1.48;;;;;;;16.45;86.25;96099.28;5261613;56;20150;-75
2021/08/04 04:56:05;;;;;;;3.38;1.80;;;;;;;16.49;85.67;96097.00;5260952;56;20138;-76
2021/08/04 05:01:07;;;;;;;2.28;1.65;;;;;;;16.76;85.12;96098.28;5261058;56;20226;-75
2021/08/04 05:06:10;;;;;;;2.60;1.70;;;;;;;16.76;84.75;96108.72;5260854;56;20721;-75
2021/08/04 05:11:13;;;;;;;5.85;1.80;;;;;;;16.73;84.95;96107.69;5261046;56;20161;-75
2021/08/04 05:16:15;;;;;;;2.13;1.83;;;;;;;16.92;83.16;96125.44;5261132;56;20744;-77
2021/08/04 05:21:18;;;;;;;1.40;1.38;;;;;;;16.94;82.97;96111.72;5260744;56;20177;-73
2021/08/04 05:26:23;;;;;;;2.85;1.52;;;;;;;17.00;84.77;96101.34;5255151;56;20129;-74
2021/08/04 05:31:25;;;;;;;2.10;1.55;;;;;;;17.04;82.19;96115.78;5264188;56;20138;-74
2021/08/04 05:36:28;;;;;;;2.63;1.80;;;;;;;17.30;81.42;96114.72;5264090;56;20650;-74
2021/08/04 05:41:30;;;;;;;1.73;1.63;;;;;;;17.50;81.00;96112.38;5263902;56;20687;-74
2021/08/04 05:46:33;;;;;;;2.28;1.90;;;;;;;17.51;81.31;96104.75;5263969;56;20171;-73
2021/08/04 05:51:35;;;;;;;1.55;1.45;;;;;;;17.40;81.18;96116.72;5264167;56;20138;-73
2021/08/04 05:56:38;;;;;;;1.45;1.38;;;;;;;17.76;80.45;96112.03;5263675;56;20130;-76
2021/08/04 06:01:40;;;;;;;2.13;1.77;;;;;;;17.56;80.40;96104.00;5263296;56;20576;-75
2021/08/04 06:06:43;;;;;;;2.63;1.60;;;;;;;18.14;78.76;96110.31;5286478;56;20116;-79
2021/08/04 06:11:45;;;;;;;1.73;1.63;;;;;;;18.42;77.09;96105.31;5278095;56;20130;-76
2021/08/04 06:16:48;;;;;;;2.25;1.40;;;;;;;18.33;76.95;96114.78;5264916;56;20129;-77
2021/08/04 06:21:51;;;;;;;2.10;1.67;;;;;;;17.91;77.64;96106.91;5263490;56;20120;-77
2021/08/04 06:26:54;;;;;;;1.45;1.35;;;;;;;17.95;78.52;96096.19;5280281;56;20204;-76
2021/08/04 06:31:57;;;;;;;1.50;1.40;;;;;;;18.81;76.38;96119.03;5278140;56;20225;-77
2021/08/04 06:36:59;;;;;;;3.40;1.65;;;;;;;19.25;72.69;96115.81;5262155;56;20593;-76
2021/08/04 06:42:03;;;;;;;3.30;1.30;;;;;;;19.55;70.59;96112.97;5263947;56;20147;-77
2021/08/04 06:47:05;;;;;;;1.80;1.38;;;;;;;19.15;71.38;96120.25;5262987;56;20121;-77
2021/08/04 06:52:08;;;;;;;1.20;1.15;;;;;;;19.38;70.54;96113.16;5263586;56;20611;-77
2021/08/04 06:57:10;;;;;;;1.83;1.20;;;;;;;19.48;72.30;96113.56;5262837;56;20554;-77
2021/08/04 07:02:13;;;;;;;1.40;1.30;;;;;;;19.04;72.43;96103.56;5262663;56;20129;-76
2021/08/04 07:07:16;;;;;;;1.45;1.23;;;;;;;19.22;69.91;96108.47;5237244;56;20217;-77
2021/08/04 07:12:18;;;;;;;1.23;1.13;;;;;;;19.48;69.87;96110.75;5241909;56;20134;-75
2021/08/04 07:17:20;;;;;;;1.25;1.15;;;;;;;19.65;69.65;96117.69;5241627;56;20134;-77
2021/08/04 07:22:23;;;;;;;4.30;1.30;;;;;;;20.07;67.71;96118.94;5242044;56;20130;-77
2021/08/04 07:27:25;;;;;;;2.17;1.40;;;;;;;20.07;67.54;96112.56;5242626;56;20214;-77
2021/08/04 07:32:30;;;;;;;1.10;1.10;;;;;;;20.21;63.32;96114.19;5241533;56;20127;-77
2021/08/04 07:37:34;;;;;;;1.15;1.08;;;;;;;18.93;65.45;96121.19;5241989;56;20121;-78
2021/08/04 07:42:37;;;;;;;3.67;1.20;;;;;;;19.10;66.83;96112.66;5242037;56;20167;-78
2021/08/04 07:47:40;;;;;;;1.60;1.00;;;;;;;19.45;67.27;96103.41;5231236;56;20576;-79
2021/08/04 07:52:43;;;;;;;0.90;0.90;;;;;;;20.25;61.89;96117.47;5243320;56;20122;-79
2021/08/04 07:57:46;;;;;;;1.20;1.10;;;;;;;20.84;59.40;96111.47;5242957;56;20582;-79
2021/08/04 08:02:49;;;;;;;1.00;1.00;;;;;;;21.08;60.67;96107.75;5230867;56;20258;-78
2021/08/04 08:07:53;;;;;;;1.42;1.30;;;;;;;21.79;56.10;96102.06;5233508;56;20135;-79
2021/08/04 08:12:55;;;;;;;1.08;1.08;;;;;;;21.62;57.60;96101.66;5239641;56;20169;-78
2021/08/04 08:17:58;;;;;;;2.00;0.95;;;;;;;20.74;61.58;96104.72;5235016;56;20130;-78
2021/08/04 08:23:00;;;;;;;1.00;1.00;;;;;;;20.79;59.13;96101.06;5228084;56;20117;-77
2021/08/04 08:28:03;;;;;;;0.82;0.82;;;;;;;20.06;60.21;96106.19;5240569;56;20125;-77
2021/08/04 08:33:06;;;;;;;0.88;0.88;;;;;;;20.64;57.60;96106.41;5242312;56;20551;-77
2021/08/04 08:38:08;;;;;;;0.93;0.90;;;;;;;21.05;58.63;96109.59;5231040;56;20121;-77
2021/08/04 08:43:11;;;;;;;0.90;0.90;;;;;;;20.89;60.95;96104.22;5239870;56;20113;-78
2021/08/04 08:48:15;;;;;;;1.00;1.00;;;;;;;20.61;59.82;96110.28;5240782;56;20126;-77
2021/08/04 08:53:19;;;;;;;2.45;1.05;;;;;;;21.09;59.79;96095.97;5243798;56;20195;-78
2021/08/04 08:58:21;;;;;;;0.80;0.80;;;;;;;21.19;60.62;96102.69;5241576;56;20210;-77
2021/08/04 09:03:24;;;;;;;2.63;1.02;;;;;;;21.47;58.96;96092.97;5244260;56;20185;-77
2021/08/04 09:08:29;;;;;;;0.93;0.90;;;;;;;21.99;59.37;96098.59;5242030;56;20117;-77
2021/08/04 09:13:34;;;;;;;1.00;0.75;;;;;;;22.02;59.26;96081.41;5242782;56;20134;-77
2021/08/04 09:18:41;;;;;;;1.00;1.00;;;;;;;21.41;59.17;96084.66;5243148;56;20118;-78
2021/08/04 09:23:52;;;;;;;1.08;1.05;;;;;;;21.92;52.50;96085.97;5243067;56;20741;-78
2021/08/04 09:29:03;;;;;;;1.20;1.20;;;;;;;22.35;55.51;96079.88;5235764;56;20139;-77
2021/08/04 09:34:31;;;;;;;1.00;1.00;;;;;;;22.35;54.70;96077.06;5239976;56;20113;-76
2021/08/04 09:39:39;;;;;;;2.33;1.25;;;;;;;21.30;57.57;96065.94;5236266;56;20693;-76
2021/08/04 09:44:58;;;;;;;1.30;1.20;;;;;;;21.28;59.70;96070.63;5237648;56;20113;-77
2021/08/04 09:50:03;;;;;;;1.40;1.30;;;;;;;21.48;57.86;96061.53;5241498;56;20082;-80
2021/08/04 09:55:14;;;;;;;1.17;0.85;;;;;;;21.70;57.38;96054.69;5267833;56;20122;-76
2021/08/04 10:00:19;;;;;;;1.05;1.05;;;;;;;21.51;58.68;96057.63;5241439;56;20175;-78
2021/08/04 10:05:24;;;;;;;1.20;1.20;;;;;;;21.51;59.87;96054.06;5223299;56;20975;-77
2021/08/04 10:10:29;;;;;;;1.48;1.02;;;;;;;21.68;58.54;96054.47;5239945;56;20138;-77
2021/08/04 10:15:38;;;;;;;0.80;0.80;;;;;;;21.73;59.00;96048.75;5239005;56;20117;-77
2021/08/04 10:20:41;;;;;;;1.35;1.25;;;;;;;21.48;59.28;96050.28;5241331;56;20186;-77
2021/08/04 10:25:45;;;;;;;0.90;0.90;;;;;;;22.22;57.67;96053.84;5250993;56;20210;-78
2021/08/04 10:30:48;;;;;;;1.02;1.02;;;;;;;22.07;58.51;96054.44;5238528;56;20125;-77
2021/08/04 10:35:56;;;;;;;1.38;1.20;;;;;;;21.78;57.78;96066.81;5242627;56;20737;-78
2021/08/04 10:41:18;;;;;;;1.52;1.05;;;;;;;21.31;58.78;96056.22;5243853;56;20125;-78
2021/08/04 10:46:33;;;;;;;0.98;0.98;;;;;;;22.69;55.38;96052.47;5236720;56;20580;-77
2021/08/04 10:51:38;;;;;;;1.45;0.95;;;;;;;22.02;55.01;96046.88;5235606;56;20785;-77
2021/08/04 10:56:44;;;;;;;1.02;0.95;;;;;;;22.13;58.75;96053.00;5235817;56;20116;-77
2021/08/04 11:01:50;;;;;;;1.08;0.98;;;;;;;22.05;58.18;96051.38;5243950;56;20122;-77
2021/08/04 11:07:07;;;;;;;1.10;1.10;;;;;;;23.19;54.23;96053.25;5243900;56;20112;-77
2021/08/04 11:12:15;;;;;;;1.60;1.30;;;;;;;23.23;51.99;96039.53;5226818;56;20138;-77
2021/08/04 11:17:31;;;;;;;0.90;0.90;;;;;;;22.79;53.36;96039.44;5244049;56;20121;-77
2021/08/04 11:22:39;;;;;;;1.27;1.17;;;;;;;22.09;53.37;96027.25;5243287;56;20135;-77
2021/08/04 11:27:44;;;;;;;1.27;0.98;;;;;;;22.59;55.40;96031.69;5260940;56;20138;-78
2021/08/04 11:32:47;;;;;;;0.65;0.65;;;;;;;22.35;55.35;96028.44;5261794;56;20180;-78
2021/08/04 11:37:50;;;;;;;0.80;0.80;;;;;;;22.49;55.06;96030.66;5244658;56;20688;-79
2021/08/04 11:42:57;;;;;;;2.22;0.93;;;;;;;22.77;53.27;96022.28;5244684;56;20214;-78
2021/08/04 11:47:59;;;;;;;1.02;1.00;;;;;;;22.57;55.60;96023.03;5244938;56;20122;-78
2021/08/04 11:53:04;;;;;;;3.20;1.17;;;;;;;22.57;53.97;96008.22;5244545;56;20134;-78
2021/08/04 11:58:07;;;;;;;0.90;0.90;;;;;;;22.48;54.24;96003.81;5235031;56;20112;-78
2021/08/04 12:03:19;;;;;;;0.90;0.90;;;;;;;22.57;55.39;95989.25;5244294;56;20117;-79
2021/08/04 12:08:28;;;;;;;1.00;1.00;;;;;;;22.82;55.69;95990.41;5243994;56;20130;-78
2021/08/04 12:13:34;;;;;;;2.60;0.88;;;;;;;22.57;56.02;95986.41;5254429;56;20226;-78
2021/08/04 12:18:48;;;;;;;2.53;1.58;;;;;;;23.00;54.83;95985.84;5246253;56;20121;-78
2021/08/04 12:23:58;;;;;;;1.05;1.05;;;;;;;22.69;55.82;95978.47;5244496;56;20824;-78
2021/08/04 12:29:17;;;;;;;1.10;1.00;;;;;;;22.68;53.56;95969.25;5243419;56;20144;-78
2021/08/04 12:34:20;;;;;;;2.92;1.02;;;;;;;22.71;57.58;95975.84;5246027;56;20131;-77
2021/08/04 12:39:30;;;;;;;3.38;1.20;;;;;;;22.51;56.21;95973.78;5263987;56;20130;-78
2021/08/04 12:44:32;;;;;;;1.50;1.38;;;;;;;22.69;57.25;95965.16;5250573;56;20095;-78
2021/08/04 12:49:35;;;;;;;1.40;1.30;;;;;;;22.84;57.60;95965.25;5249505;56;20121;-79
2021/08/04 12:54:38;;;;;;;1.20;1.20;;;;;;;22.60;57.02;95968.47;5258094;56;20103;-78
2021/08/04 12:59:42;;;;;;;1.20;1.10;;;;;;;22.43;57.98;95959.66;5269793;56;20129;-79
2021/08/04 13:05:05;;;;;;;2.03;1.13;;;;;;;22.46;59.17;95952.91;5270186;56;20112;-78
2021/08/04 13:10:07;;;;;;;1.98;1.30;;;;;;;22.35;58.95;95949.63;5272170;56;20757;-80
2021/08/04 13:15:17;;;;;;;1.50;1.30;;;;;;;22.40;60.70;95960.00;5270676;56;20124;-80
2021/08/04 13:20:29;;;;;;;1.00;1.00;;;;;;;22.57;61.19;95960.34;5269337;56;20164;-79
2021/08/04 13:25:41;;;;;;;1.30;1.20;;;;;;;22.29;61.56;95965.91;5268969;56;20344;-79
2021/08/04 13:30:49;;;;;;;1.40;1.30;;;;;;;22.21;63.65;95951.00;5258353;56;20125;-79
2021/08/04 13:35:53;;;;;;;1.30;1.20;;;;;;;22.32;62.56;95962.72;5261011;56;20152;-78
2021/08/04 13:40:57;;;;;;;1.13;1.13;;;;;;;22.28;61.10;95959.50;5265319;56;20142;-79
2021/08/04 13:46:04;;;;;;;0.95;0.93;;;;;;;21.73;65.17;95949.56;5259806;56;20112;-78
2021/08/04 13:51:07;;;;;;;1.60;1.50;;;;;;;21.64;64.27;95947.19;5264442;56;20125;-79
2021/08/04 13:56:10;;;;;;;1.15;1.10;;;;;;;21.60;65.97;95950.31;5264450;56;20139;-79
2021/08/04 14:01:12;;;;;;;1.00;1.00;;;;;;;21.21;67.31;95939.91;5264396;56;20121;-78
2021/08/04 14:06:15;;;;;;;1.30;1.20;;;;;;;20.94;67.46;95935.56;5263464;56;20192;-74
2021/08/04 14:11:17;;;;;;;1.00;1.00;;;;;;;20.81;69.31;95944.00;5254455;56;20130;-76
2021/08/04 14:16:20;;;;;;;1.65;1.50;;;;;;;20.58;70.93;95946.47;5226761;56;20117;-76
2021/08/04 14:21:22;;;;;;;1.00;1.00;;;;;;;20.22;72.00;95950.94;5255102;56;20690;-80
2021/08/04 14:26:24;;;;;;;1.10;1.10;;;;;;;20.19;71.84;95952.00;5263927;56;20120;-76
2021/08/04 14:31:27;;;;;;;1.75;1.13;;;;;;;20.06;71.85;95948.38;5254348;56;20273;-75
2021/08/04 14:36:30;;;;;;;1.30;1.20;;;;;;;19.82;73.29;95950.00;5256270;56;20233;-75
2021/08/04 14:41:32;;;;;;;2.67;1.33;;;;;;;19.93;73.23;95952.63;5240229;56;20142;-75
2021/08/04 14:46:35;;;;;;;1.30;1.20;;;;;;;20.35;74.62;95944.59;5243888;56;20686;-77
2021/08/04 14:51:38;;;;;;;1.10;1.10;;;;;;;20.18;74.04;95952.50;5237514;56;20230;-74
2021/08/04 14:56:40;;;;;;;1.10;1.10;;;;;;;19.95;76.25;95941.66;5250840;56;20112;-76
2021/08/04 15:01:42;;;;;;;1.17;1.15;;;;;;;20.00;76.03;95946.41;5247274;56;20589;-75
2021/08/04 15:06:45;;;;;;;1.20;1.20;;;;;;;19.93;76.12;95935.81;5230093;56;20125;-76
2021/08/04 15:11:48;;;;;;;4.07;1.27;;;;;;;19.60;77.07;95922.31;5248825;56;20139;-76
2021/08/04 15:16:50;;;;;;;1.90;1.40;;;;;;;19.65;76.89;95938.28;5241181;56;20130;-76
2021/08/04 15:21:52;;;;;;;1.45;1.35;;;;;;;19.69;76.91;95935.94;5241615;56;20122;-75
2021/08/04 15:26:55;;;;;;;1.40;1.30;;;;;;;19.55;76.92;95939.19;5244528;56;20121;-76
2021/08/04 15:31:57;;;;;;;1.13;1.08;;;;;;;19.15;76.65;95935.38;5241658;56;20149;-76
2021/08/04 15:37:00;;;;;;;1.00;1.00;;;;;;;18.90;76.77;95939.50;5238636;56;20214;-76
2021/08/04 15:42:03;;;;;;;1.15;1.13;;;;;;;19.00;77.95;95929.44;5246912;56;20131;-77
2021/08/04 15:47:05;;;;;;;1.23;1.20;;;;;;;19.04;79.54;95929.91;5248248;56;20120;-77
2021/08/04 15:52:08;;;;;;;1.85;1.10;;;;;;;19.25;79.15;95928.09;5253145;56;20120;-76
2021/08/04 15:57:10;;;;;;;1.70;1.30;;;;;;;19.21;78.73;95920.00;5252944;56;20738;-74
2021/08/04 16:02:12;;;;;;;1.17;1.10;;;;;;;18.99;78.13;95916.75;5253806;56;20126;-76
2021/08/04 16:07:15;;;;;;;1.48;1.38;;;;;;;18.68;78.36;95908.97;5258105;56;20256;-76
2021/08/04 16:12:17;;;;;;;1.30;1.20;;;;;;;18.45;80.27;95914.78;5249979;56;20223;-76
2021/08/04 16:17:20;;;;;;;2.45;1.08;;;;;;;18.66;79.62;95912.28;5256559;56;20113;-76
2021/08/04 16:22:22;;;;;;;2.33;1.10;;;;;;;18.59;80.26;95916.41;5281294;56;20108;-77
2021/08/04 16:27:25;;;;;;;1.05;1.00;;;;;;;18.66;80.21;95906.69;5251501;56;20130;-77
2021/08/04 16:32:27;;;;;;;0.90;0.90;;;;;;;18.70;79.20;95912.75;5237872;56;20130;-76
2021/08/04 16:37:30;;;;;;;4.20;1.27;;;;;;;18.68;80.65;95906.91;5240543;56;20765;-75
2021/08/04 16:42:32;;;;;;;2.75;1.10;;;;;;;18.43;82.48;95908.19;5234973;56;20169;-74
2021/08/04 16:47:36;;;;;;;1.73;1.40;;;;;;;18.47;83.03;95897.50;5252248;56;20151;-72
2021/08/04 16:52:39;;;;;;;1.20;1.20;;;;;;;18.47;82.18;95898.25;5238341;56;20137;-77
2021/08/04 16:57:42;;;;;;;1.35;0.98;;;;;;;18.34;82.89;95900.88;5247435;56;20126;-76
2021/08/04 17:02:44;;;;;;;2.58;1.10;;;;;;;18.25;83.36;95898.44;5238008;56;20126;-76
2021/08/04 17:07:47;;;;;;;1.08;1.08;;;;;;;18.28;84.09;95900.19;5305182;45;20119;-76
2021/08/04 17:12:50;;;;;;;5.68;1.20;;;;;;;18.23;83.95;95906.59;5178051;57;20133;-74
2021/08/04 17:17:52;;;;;;;4.22;1.10;;;;;;;18.14;84.38;95895.75;5177814;57;20116;-76
2021/08/04 17:22:55;;;;;;;1.52;1.13;;;;;;;17.83;85.64;95899.06;5176275;57;20138;-73
2021/08/04 17:27:58;;;;;;;0.93;0.90;;;;;;;17.18;87.08;95902.53;5180448;57;20123;-76
2021/08/04 17:33:00;;;;;;;0.90;0.90;;;;;;;17.23;86.84;95897.44;5186636;57;20128;-74
2021/08/04 17:38:03;;;;;;;0.90;0.90;;;;;;;17.39;86.21;95905.69;5183397;57;20123;-76
2021/08/04 17:43:05;;;;;;;0.90;0.90;;;;;;;17.33;86.87;95901.41;5179968;57;20150;-77
2021/08/04 17:48:08;;;;;;;1.05;0.93;;;;;;;17.43;86.64;95902.63;5179951;57;20234;-77
2021/08/04 17:53:10;;;;;;;1.13;0.85;;;;;;;17.18;86.80;95896.94;5180247;57;20129;-74
2021/08/04 17:58:13;;;;;;;0.80;0.80;;;;;;;17.22;86.10;95885.50;5180293;57;20141;-74
2021/08/04 18:03:15;;;;;;;0.70;0.70;;;;;;;17.21;85.31;95893.09;5179884;57;20124;-74
2021/08/04 18:08:17;;;;;;;0.80;0.80;;;;;;;17.17;86.13;95889.06;5180184;57;20111;-74
2021/08/04 18:13:20;;;;;;;1.35;0.93;;;;;;;17.16;86.45;95893.91;5180149;57;20614;-71
2021/08/04 18:18:22;;;;;;;1.08;0.98;;;;;;;17.15;86.58;95897.97;5179224;57;20119;-74
2021/08/04 18:23:25;;;;;;;1.10;1.00;;;;;;;17.09;87.16;95893.69;5179093;57;20120;-73
2021/08/04 18:28:27;;;;;;;1.75;0.90;;;;;;;17.08;87.63;95898.53;5178596;57;20121;-74
2021/08/04 18:33:30;;;;;;;0.85;0.85;;;;;;;16.68;86.55;95893.63;5177675;57;20146;-75
2021/08/04 18:38:32;;;;;;;2.60;0.50;;;;;;;16.66;87.08;95895.41;5180695;57;20234;-75
2021/08/04 18:43:36;;;;;;;1.17;0.75;;;;;;;16.74;87.65;95888.78;5179123;57;20124;-75
2021/08/04 18:54:09;;;;;;;4.97;0.90;;;;;;;16.75;87.59;95895.88;5757547;46;20591;-75
2021/08/04 18:59:12;;;;;;;2.20;0.70;;;;;;;16.76;86.79;95889.00;5247097;56;20125;-75
2021/08/04 19:04:14;;;;;;;3.28;0.90;;;;;;;16.67;88.00;95892.09;5254512;56;20117;-75
2021/08/04 19:09:17;;;;;;;2.40;0.68;;;;;;;16.72;87.45;95890.56;5261776;56;20120;-74
2021/08/04 19:14:19;;;;;;;1.33;0.80;;;;;;;16.54;87.03;95891.91;5236264;56;20148;-73
2021/08/04 19:19:21;;;;;;;0.95;0.65;;;;;;;16.42;87.51;95893.16;5247348;56;20116;-73
2021/08/04 19:24:24;;;;;;;0.88;0.70;;;;;;;16.48;86.58;95896.72;5254103;56;20116;-73
2021/08/04 19:29:26;;;;;;;0.45;0.40;;;;;;;16.53;86.94;95893.19;5236539;56;20125;-74
2021/08/04 19:34:28;;;;;;;0.98;0.40;;;;;;;16.32;86.51;95878.00;5261433;56;20111;-73
2021/08/04 19:39:31;;;;;;;1.65;0.60;;;;;;;16.43;87.17;95880.75;5252403;56;20125;-74
2021/08/04 19:44:33;;;;;;;0.70;0.70;;;;;;;16.54;86.89;95875.16;5261176;56;20586;-73
2021/08/04 19:49:35;;;;;;;2.30;0.63;;;;;;;16.42;86.97;95866.03;5261179;56;20116;-73
2021/08/04 19:54:38;;;;;;;0.75;0.75;;;;;;;16.44;86.90;95857.19;5261334;56;20138;-73
2021/08/04 19:59:44;;;;;;;5.55;0.98;;;;;;;16.48;87.11;95852.09;5261346;56;20130;-74
2021/08/04 20:04:46;;;;;;;0.70;0.70;;;;;;;16.34;87.53;95851.13;5260522;56;20579;-72
2021/08/04 20:09:49;;;;;;;5.28;0.85;;;;;;;16.39;87.56;95860.72;5261119;56;20633;-73
2021/08/04 20:14:53;;;;;;;1.10;0.90;;;;;;;16.37;88.02;95852.84;5245845;56;20585;-74
2021/08/04 20:19:56;;;;;;;0.88;0.88;;;;;;;16.29;88.11;95856.69;5252482;56;20156;-73
2021/08/04 20:24:59;;;;;;;0.63;0.63;;;;;;;16.39;87.79;95844.00;5260955;56;20120;-74
2021/08/04 20:30:03;;;;;;;1.00;0.80;;;;;;;16.32;87.83;95859.25;5260980;56;20669;-73
2021/08/04 20:35:06;;;;;;;1.38;1.00;;;;;;;16.29;88.11;95843.53;5259382;56;20116;-71
2021/08/04 20:40:09;;;;;;;2.08;1.85;;;;;;;16.36;88.57;95848.56;5230991;56;20152;-72
2021/08/04 20:45:13;;;;;;;1.15;1.10;;;;;;;16.41;88.21;95853.38;5245013;56;20589;-73
2021/08/04 20:50:15;;;;;;;1.10;1.10;;;;;;;16.38;88.70;95848.81;5246109;56;20594;-71
2021/08/04 20:55:19;;;;;;;9.75;1.20;;;;;;;16.23;89.27;95850.38;5257323;56;20965;-74
2021/08/04 21:00:23;;;;;;;3.42;1.35;;;;;;;16.28;89.03;95850.34;5256811;56;20169;-70
2021/08/04 21:05:27;;;;;;;1.55;1.30;;;;;;;16.29;89.29;95846.31;5266952;56;20129;-73
2021/08/04 21:10:30;;;;;;;1.58;1.40;;;;;;;16.34;88.99;95859.47;5267278;56;20116;-73
2021/08/04 21:15:32;;;;;;;1.67;1.42;;;;;;;16.36;88.98;95851.34;5252195;56;20117;-72
2021/08/04 21:20:37;;;;;;;1.85;1.70;;;;;;;16.25;89.03;95850.63;5247904;56;20126;-72
2021/08/04 21:25:40;;;;;;;1.50;1.40;;;;;;;16.35;88.92;95849.81;5234783;56;20675;-74
2021/08/04 21:30:42;;;;;;;1.25;1.17;;;;;;;16.22;89.54;95854.44;5243186;56;20163;-74
2021/08/04 21:35:45;;;;;;;2.58;1.00;;;;;;;16.30;88.98;95844.28;5241515;56;20121;-74
2021/08/04 21:40:49;;;;;;;4.32;0.98;;;;;;;16.24;88.75;95849.88;5242254;56;20113;-73
2021/08/04 21:45:52;;;;;;;0.90;0.90;;;;;;;16.19;89.13;95841.53;5242513;56;20594;-73
2021/08/04 21:50:54;;;;;;;1.00;1.00;;;;;;;16.12;88.88;95842.81;5243130;56;20170;-72
2021/08/04 21:55:57;;;;;;;1.95;1.40;;;;;;;16.17;89.03;95849.66;5244694;56;20249;-74
2021/08/04 22:00:59;;;;;;;2.97;1.17;;;;;;;16.35;88.37;95843.50;5249310;56;20138;-73
2021/08/04 22:06:02;;;;;;;1.95;1.20;;;;;;;16.29;88.58;95846.31;5250767;56;20121;-73
2021/08/04 22:11:05;;;;;;;7.22;1.05;;;;;;;16.17;88.97;95842.03;5247423;56;20129;-73
2021/08/04 22:16:07;;;;;;;0.90;0.90;;;;;;;16.17;89.02;95844.81;5246764;56;20126;-74
2021/08/04 22:21:10;;;;;;;5.78;1.10;;;;;;;16.16;88.96;95842.53;5242173;56;20677;-73
2021/08/04 22:26:12;;;;;;;0.88;0.88;;;;;;;16.08;89.33;95841.56;5241793;56;20134;-74
2021/08/04 22:31:14;;;;;;;3.15;1.42;;;;;;;16.12;89.68;95844.84;5242382;56;20126;-74
2021/08/04 22:36:17;;;;;;;1.13;1.13;;;;;;;16.10;89.17;95836.97;5243316;56;20172;-73
2021/08/04 22:41:19;;;;;;;1.50;1.30;;;;;;;16.18;89.04;95840.00;5242002;56;20130;-73
2021/08/04 22:46:22;;;;;;;2.58;1.30;;;;;;;16.19;88.63;95839.47;5257188;56;20226;-73
2021/08/04 22:51:25;;;;;;;1.08;1.08;;;;;;;16.24;88.52;95843.53;5253300;56;20126;-73
2021/08/04 22:56:27;;;;;;;1.05;1.02;;;;;;;16.17;88.55;95841.28;5244779;56;20130;-73
2021/08/04 23:01:29;;;;;;;1.17;1.15;;;;;;;16.12;88.93;95845.59;5242075;56;20170;-72
2021/08/04 23:06:32;;;;;;;1.20;1.10;;;;;;;16.25;88.42;95834.66;5241720;56;20183;-73
2021/08/04 23:11:34;;;;;;;1.02;1.00;;;;;;;16.23;88.75;95833.66;5241893;56;20146;-75
2021/08/04 23:16:36;;;;;;;2.33;1.15;;;;;;;16.34;87.79;95826.03;5241052;56;20116;-73
2021/08/04 23:21:39;;;;;;;1.17;1.08;;;;;;;16.38;88.08;95826.50;5241796;56;20702;-74
2021/08/04 23:26:41;;;;;;;1.00;1.00;;;;;;;16.41;87.88;95827.50;5241451;56;20125;-74
2021/08/04 23:31:44;;;;;;;1.10;1.10;;;;;;;16.39;87.78;95828.03;5241810;56;20113;-74
2021/08/04 23:36:47;;;;;;;7.88;1.40;;;;;;;16.28;88.58;95819.69;5232335;56;20130;-73
2021/08/04 23:41:49;;;;;;;3.08;1.35;;;;;;;16.27;88.46;95817.41;5241471;56;20113;-74
2021/08/04 23:46:52;;;;;;;1.63;1.08;;;;;;;16.28;88.54;95813.38;5232308;56;20135;-74
2021/08/04 23:51:54;;;;;;;0.95;0.90;;;;;;;16.38;87.49;95798.63;5241321;56;20121;-73
2021/08/04 23:56:57;;;;;;;0.95;0.95;;;;;;;16.32;87.96;95811.06;5241270;56;20134;-74
